createdAt,value
2023-04-01T00:00:26.020Z,147591.06
2023-04-01T00:01:28.542Z,147581.41
2023-04-01T00:02:31.260Z,147569.31
2023-04-01T00:03:34.569Z,147591.06
2023-04-01T00:04:37.568Z,147586.25
2023-04-01T00:05:40.581Z,147597.13
2023-04-01T00:06:43.074Z,147591.06
2023-04-01T00:07:45.829Z,147588.66
2023-04-01T00:08:48.587Z,147592.28
2023-04-01T00:09:50.989Z,147592.28
2023-04-01T00:10:54.596Z,147610.47
2023-04-01T00:11:57.109Z,147594.69
2023-04-01T00:12:59.633Z,147591.06
2023-04-01T00:14:02.290Z,147600.78
2023-04-01T00:15:07.924Z,147605.63
2023-04-01T00:16:21.028Z,147586.25
2023-04-01T00:17:24.959Z,147591.06
2023-04-01T00:18:27.476Z,147575.38
2023-04-01T00:19:29.998Z,147581.41
2023-04-01T00:20:32.520Z,147583.81
2023-04-01T00:21:35.158Z,147571.75
2023-04-01T00:22:37.682Z,147581.41
2023-04-01T00:23:40.319Z,147581.41
2023-04-01T00:24:42.842Z,147581.41
2023-04-01T00:25:47.882Z,147593.50
2023-04-01T00:26:50.285Z,147599.59
2023-04-01T00:27:53.040Z,147589.88
2023-04-01T00:28:56.175Z,147595.91
2023-04-01T00:29:58.804Z,147605.63
2023-04-01T00:31:06.071Z,147622.53
2023-04-01T00:32:08.527Z,147595.91
2023-04-01T00:33:11.713Z,147582.63
2023-04-01T00:34:14.166Z,147589.88
2023-04-01T00:35:16.814Z,147572.94
2023-04-01T00:36:22.843Z,147609.25
2023-04-01T00:37:25.693Z,147581.41
2023-04-01T00:38:28.212Z,147582.63
2023-04-01T00:39:32.330Z,147594.69
2023-04-01T00:40:38.174Z,147592.28
2023-04-01T00:41:41.296Z,147554.78
2023-04-01T00:42:44.054Z,147575.38
2023-04-01T00:43:51.922Z,147606.84
2023-04-01T00:44:55.936Z,147606.84
2023-04-01T00:45:58.461Z,147583.81
2023-04-01T00:47:02.097Z,147588.66
2023-04-01T00:48:21.867Z,147609.25
2023-04-01T00:49:32.183Z,147604.41
2023-04-01T00:50:36.865Z,147593.50
2023-04-01T00:51:41.424Z,147566.88
2023-04-01T00:52:44.308Z,147569.31
2023-04-01T00:53:51.031Z,147594.69
2023-04-01T00:55:00.287Z,147622.53
2023-04-01T00:56:08.304Z,147610.47
2023-04-01T00:57:20.457Z,147608.03
2023-04-01T00:58:27.631Z,147597.13
2023-04-01T00:59:42.507Z,147621.34
2023-04-01T01:00:49.235Z,147608.03
2023-04-01T01:01:52.288Z,147595.91
2023-04-01T01:02:54.904Z,147606.84
2023-04-01T01:03:57.637Z,147598.31
2023-04-01T01:05:00.527Z,147588.66
2023-04-01T01:06:08.796Z,147631.00
2023-04-01T01:07:37.718Z,147628.59
2023-04-01T01:09:17.074Z,147657.63
2023-04-01T01:10:21.276Z,147620.13
2023-04-01T01:11:49.127Z,147629.78
2023-04-01T01:12:57.517Z,147610.47
2023-04-01T01:14:24.044Z,147620.13
2023-04-01T01:15:38.917Z,147626.16
2023-04-01T01:16:48.077Z,147618.91
2023-04-01T01:18:05.000Z,147618.91
2023-04-01T01:19:25.483Z,147637.09
2023-04-01T01:20:44.093Z,147637.09
2023-04-01T01:22:03.654Z,147629.78
2023-04-01T01:23:43.742Z,147643.13
2023-04-01T01:25:05.109Z,147593.50
2023-04-01T01:26:27.525Z,147627.38
2023-04-01T01:27:30.650Z,147583.81
2023-04-01T01:28:57.889Z,147622.53
2023-04-01T01:30:08.939Z,147610.47
2023-04-01T01:31:31.607Z,147622.53
2023-04-01T01:33:12.786Z,147631.00
2023-04-01T01:34:24.782Z,147615.28
2023-04-01T01:35:36.170Z,147598.31
2023-04-01T01:36:48.915Z,147591.06
2023-04-01T01:37:56.819Z,147581.41
2023-04-01T01:38:59.817Z,147579.00
2023-04-01T01:40:07.015Z,147605.63
2023-04-01T01:41:13.494Z,147581.41
2023-04-01T01:42:19.613Z,147612.88
2023-04-01T01:43:26.697Z,147628.59
2023-04-01T01:44:31.621Z,147602.00
2023-04-01T01:45:37.985Z,147622.53
2023-04-01T01:46:43.633Z,147612.88
2023-04-01T01:47:47.622Z,147593.50
2023-04-01T01:48:52.138Z,147608.03
2023-04-01T01:49:56.845Z,147603.22
2023-04-01T01:51:00.904Z,147597.13
2023-04-01T01:52:04.739Z,147586.25
2023-04-01T01:53:10.863Z,147598.31
2023-04-01T01:54:18.660Z,147591.06
2023-04-01T01:55:44.704Z,147603.22
2023-04-01T01:56:52.067Z,147583.81
2023-04-01T01:57:59.471Z,147603.22
2023-04-01T01:59:09.818Z,147598.31
2023-04-01T02:00:16.526Z,147586.25
2023-04-01T02:01:27.098Z,147612.88
2023-04-01T02:02:33.228Z,147574.16
2023-04-01T02:03:38.372Z,147591.06
2023-04-01T02:04:44.121Z,147591.06
2023-04-01T02:05:47.469Z,147588.66
2023-04-01T02:07:01.390Z,147622.53
2023-04-01T02:08:13.030Z,147611.66
2023-04-01T02:09:15.554Z,147574.16
2023-04-01T02:10:21.070Z,147605.63
2023-04-01T02:11:30.683Z,147610.47
2023-04-01T02:12:36.315Z,147598.31
2023-04-01T02:13:41.483Z,147598.31
2023-04-01T02:14:47.118Z,147568.13
2023-04-01T02:15:51.858Z,147591.06
2023-04-01T02:17:10.530Z,147632.25
2023-04-01T02:18:14.956Z,147612.88
2023-04-01T02:19:23.758Z,147603.22
2023-04-01T02:20:30.078Z,147608.03
2023-04-01T02:21:33.917Z,147579.00
2023-04-01T02:22:42.675Z,147597.13
2023-04-01T02:23:46.763Z,147586.25
2023-04-01T02:24:51.682Z,147591.06
2023-04-01T02:25:54.690Z,147582.63
2023-04-01T02:26:57.202Z,147580.19
2023-04-01T02:28:01.402Z,147586.25
2023-04-01T02:29:06.688Z,147586.25
2023-04-01T02:30:09.933Z,147577.78
2023-04-01T02:31:13.905Z,147558.41
2023-04-01T02:32:18.806Z,147579.00
2023-04-01T02:33:22.121Z,147557.19
2023-04-01T02:34:26.509Z,147566.88
2023-04-01T02:35:29.246Z,147552.38
2023-04-01T02:36:32.608Z,147562.03
2023-04-01T02:37:36.801Z,147540.22
2023-04-01T02:38:41.727Z,147566.88
2023-04-01T02:39:45.112Z,147566.88
2023-04-01T02:40:50.737Z,147568.13
2023-04-01T02:41:53.731Z,147570.53
2023-04-01T02:42:56.374Z,147559.63
2023-04-01T02:44:00.332Z,147562.03
2023-04-01T02:45:03.573Z,147560.81
2023-04-01T02:46:06.224Z,147549.91
2023-04-01T02:47:08.908Z,147552.38
2023-04-01T02:48:11.496Z,147545.06
2023-04-01T02:49:14.016Z,147543.84
2023-04-01T02:50:16.541Z,147546.28
2023-04-01T02:51:19.072Z,147559.63
2023-04-01T02:52:21.462Z,147549.91
2023-04-01T02:53:24.122Z,147546.28
2023-04-01T02:54:26.620Z,147559.63
2023-04-01T02:55:29.263Z,147549.91
2023-04-01T02:56:31.667Z,147552.38
2023-04-01T02:57:34.237Z,147564.44
2023-04-01T02:58:36.829Z,147552.38
2023-04-01T02:59:39.348Z,147557.19
2023-04-01T03:00:41.748Z,147547.47
2023-04-01T03:01:44.273Z,147566.88
2023-04-01T03:02:46.913Z,147543.84
2023-04-01T03:03:49.442Z,147540.22
2023-04-01T03:04:51.957Z,147536.59
2023-04-01T03:05:57.237Z,147548.69
2023-04-01T03:06:59.870Z,147554.78
2023-04-01T03:08:03.715Z,147571.75
2023-04-01T03:09:06.242Z,147549.91
2023-04-01T03:10:09.236Z,147543.84
2023-04-01T03:11:12.601Z,147545.06
2023-04-01T03:12:15.545Z,147540.22
2023-04-01T03:13:25.557Z,147540.22
2023-04-01T03:14:28.079Z,147548.69
2023-04-01T03:15:30.988Z,147552.38
2023-04-01T03:16:34.216Z,147547.47
2023-04-01T03:17:37.028Z,147535.41
2023-04-01T03:18:39.723Z,147537.81
2023-04-01T03:19:42.246Z,147535.41
2023-04-01T03:20:45.839Z,147546.28
2023-04-01T03:21:48.240Z,147531.72
2023-04-01T03:22:50.643Z,147540.22
2023-04-01T03:23:53.404Z,147545.06
2023-04-01T03:24:55.922Z,147540.22
2023-04-01T03:25:58.562Z,147537.81
2023-04-01T03:27:00.846Z,147540.22
2023-04-01T03:28:04.097Z,147535.41
2023-04-01T03:29:06.602Z,147539.03
2023-04-01T03:30:10.659Z,147557.19
2023-04-01T03:31:23.270Z,147536.59
2023-04-01T03:32:29.899Z,147547.47
2023-04-01T03:33:32.767Z,147547.47
2023-04-01T03:34:35.289Z,147545.06
2023-04-01T03:35:37.808Z,147554.78
2023-04-01T03:36:40.382Z,147555.97
2023-04-01T03:37:42.966Z,147547.47
2023-04-01T03:38:46.102Z,147526.91
2023-04-01T03:39:54.250Z,147535.41
2023-04-01T03:40:56.534Z,147528.09
2023-04-01T03:41:59.181Z,147522.06
2023-04-01T03:43:01.866Z,147532.94
2023-04-01T03:44:04.460Z,147552.38
2023-04-01T03:45:07.335Z,147535.41
2023-04-01T03:46:10.097Z,147545.06
2023-04-01T03:47:12.732Z,147540.22
2023-04-01T03:48:16.232Z,147548.69
2023-04-01T03:49:19.127Z,147549.91
2023-04-01T03:50:21.739Z,147537.81
2023-04-01T03:51:24.255Z,147534.13
2023-04-01T03:52:27.981Z,147540.22
2023-04-01T03:53:30.630Z,147530.53
2023-04-01T03:54:35.903Z,147535.41
2023-04-01T03:55:38.786Z,147534.13
2023-04-01T03:56:41.550Z,147525.69
2023-04-01T03:57:44.062Z,147520.84
2023-04-01T03:58:53.546Z,147513.59
2023-04-01T03:59:56.075Z,147526.91
2023-04-01T04:00:58.587Z,147525.69
2023-04-01T04:02:01.233Z,147535.41
2023-04-01T04:03:04.597Z,147526.91
2023-04-01T04:04:14.257Z,147543.84
2023-04-01T04:05:17.206Z,147518.44
2023-04-01T04:06:21.028Z,147523.28
2023-04-01T04:07:24.392Z,147529.31
2023-04-01T04:08:37.484Z,147554.78
2023-04-01T04:09:39.992Z,147540.22
2023-04-01T04:10:42.755Z,147523.28
2023-04-01T04:11:45.392Z,147540.22
2023-04-01T04:12:47.794Z,147505.16
2023-04-01T04:13:51.285Z,147513.59
2023-04-01T04:14:53.681Z,147537.81
2023-04-01T04:15:56.226Z,147537.81
2023-04-01T04:16:58.956Z,147537.81
2023-04-01T04:18:02.228Z,147535.41
2023-04-01T04:19:05.561Z,147511.19
2023-04-01T04:20:09.406Z,147513.59
2023-04-01T04:21:14.942Z,147526.91
2023-04-01T04:22:17.811Z,147502.72
2023-04-01T04:23:20.438Z,147494.22
2023-04-01T04:24:22.965Z,147511.19
2023-04-01T04:25:36.528Z,147511.19
2023-04-01T04:26:39.172Z,147499.06
2023-04-01T04:27:41.802Z,147520.84
2023-04-01T04:28:47.812Z,147507.56
2023-04-01T04:29:51.408Z,147518.44
2023-04-01T04:30:54.786Z,147525.69
2023-04-01T04:31:57.493Z,147518.44
2023-04-01T04:33:00.751Z,147530.53
2023-04-01T04:34:03.408Z,147535.41
2023-04-01T04:35:09.889Z,147539.03
2023-04-01T04:36:12.425Z,147532.94
2023-04-01T04:37:15.050Z,147529.31
2023-04-01T04:38:18.171Z,147537.81
2023-04-01T04:39:20.811Z,147551.16
2023-04-01T04:40:24.650Z,147542.66
2023-04-01T04:41:27.080Z,147532.94
2023-04-01T04:42:29.693Z,147512.41
2023-04-01T04:43:37.142Z,147501.47
2023-04-01T04:44:40.856Z,147523.28
2023-04-01T04:45:43.627Z,147511.19
2023-04-01T04:46:46.768Z,147525.69
2023-04-01T04:47:51.987Z,147535.41
2023-04-01T04:48:54.656Z,147517.22
2023-04-01T04:49:57.660Z,147523.28
2023-04-01T04:51:00.778Z,147513.59
2023-04-01T04:52:03.418Z,147513.59
2023-04-01T04:53:05.950Z,147508.78
2023-04-01T04:54:09.779Z,147528.09
2023-04-01T04:55:26.343Z,147523.28
2023-04-01T04:56:48.438Z,147513.59
2023-04-01T04:57:51.303Z,147524.47
2023-04-01T04:58:53.965Z,147530.53
2023-04-01T05:00:00.794Z,147523.28
2023-04-01T05:01:17.733Z,147539.03
2023-04-01T05:02:20.408Z,147525.69
2023-04-01T05:03:23.574Z,147523.28
2023-04-01T05:04:26.234Z,147532.94
2023-04-01T05:05:28.869Z,147535.41
2023-04-01T05:06:32.469Z,147525.69
2023-04-01T05:07:35.588Z,147526.91
2023-04-01T05:08:39.795Z,147523.28
2023-04-01T05:09:42.430Z,147516.03
2023-04-01T05:10:45.789Z,147505.16
2023-04-01T05:11:48.323Z,147520.84
2023-04-01T05:12:50.957Z,147499.06
2023-04-01T05:13:56.834Z,147506.34
2023-04-01T05:14:59.238Z,147506.34
2023-04-01T05:16:02.017Z,147528.09
2023-04-01T05:17:04.865Z,147518.44
2023-04-01T05:18:07.586Z,147523.28
2023-04-01T05:19:10.783Z,147505.16
2023-04-01T05:20:14.968Z,147537.81
2023-04-01T05:21:17.599Z,147520.84
2023-04-01T05:22:20.134Z,147518.44
2023-04-01T05:23:23.599Z,147528.09
2023-04-01T05:24:26.119Z,147513.59
2023-04-01T05:25:28.765Z,147514.81
2023-04-01T05:26:31.764Z,147530.53
2023-04-01T05:27:34.408Z,147513.59
2023-04-01T05:28:37.170Z,147508.78
2023-04-01T05:29:40.284Z,147520.84
2023-04-01T05:30:47.648Z,147519.66
2023-04-01T05:32:06.685Z,147537.81
2023-04-01T05:33:10.000Z,147542.66
2023-04-01T05:34:12.568Z,147542.66
2023-04-01T05:35:15.452Z,147543.84
2023-04-01T05:36:18.619Z,147560.81
2023-04-01T05:37:21.336Z,147570.53
2023-04-01T05:38:24.096Z,147557.19
2023-04-01T05:39:26.612Z,147540.22
2023-04-01T05:40:29.858Z,147532.94
2023-04-01T05:41:32.612Z,147522.06
2023-04-01T05:42:36.963Z,147548.69
2023-04-01T05:43:41.618Z,147549.91
2023-04-01T05:45:02.615Z,147557.19
2023-04-01T05:46:43.778Z,147552.38
2023-04-01T05:48:01.595Z,147539.03
2023-04-01T05:49:08.289Z,147532.94
2023-04-01T05:50:12.105Z,147523.28
2023-04-01T05:51:15.939Z,147535.41
2023-04-01T05:52:18.583Z,147531.72
2023-04-01T05:53:21.339Z,147512.41
2023-04-01T05:54:24.613Z,147535.41
2023-04-01T05:55:27.104Z,147530.53
2023-04-01T05:56:29.621Z,147549.91
2023-04-01T05:57:33.180Z,147547.47
2023-04-01T05:58:36.465Z,147551.16
2023-04-01T05:59:38.986Z,147543.84
2023-04-01T06:00:41.508Z,147540.22
2023-04-01T06:01:44.144Z,147562.03
2023-04-01T06:02:47.593Z,147554.78
2023-04-01T06:03:50.409Z,147568.13
2023-04-01T06:05:04.910Z,147581.41
2023-04-01T06:06:15.705Z,147591.06
2023-04-01T06:07:19.549Z,147594.69
2023-04-01T06:08:22.691Z,147547.47
2023-04-01T06:09:31.316Z,147608.03
2023-04-01T06:11:07.565Z,147623.75
2023-04-01T06:12:15.608Z,147608.03
2023-04-01T06:14:03.952Z,147637.09
2023-04-01T06:15:18.980Z,147620.13
2023-04-01T06:16:34.974Z,147605.63
2023-04-01T06:18:25.434Z,147610.47
2023-04-01T06:19:36.713Z,147605.63
2023-04-01T06:20:52.797Z,147622.53
2023-04-01T06:22:01.085Z,147595.91
2023-04-01T06:23:36.972Z,147595.91
2023-04-01T06:25:00.963Z,147609.25
2023-04-01T06:26:28.441Z,147581.41
2023-04-01T06:27:58.337Z,147599.59
2023-04-01T06:29:33.628Z,147617.72
2023-04-01T06:30:54.611Z,147605.63
2023-04-01T06:32:15.192Z,147622.53
2023-04-01T06:33:36.128Z,147656.44
2023-04-01T06:35:00.156Z,147634.69
2023-04-01T06:36:24.993Z,147668.56
2023-04-01T06:37:27.865Z,147639.50
2023-04-01T06:38:48.500Z,147679.44
2023-04-01T06:39:59.783Z,147655.22
2023-04-01T06:41:13.097Z,147658.84
2023-04-01T06:42:38.425Z,147634.69
2023-04-01T06:44:22.224Z,147638.31
2023-04-01T06:45:50.209Z,147639.50
2023-04-01T06:47:39.260Z,147658.84
2023-04-01T06:49:22.586Z,147666.16
2023-04-01T06:51:09.985Z,147649.19
2023-04-01T06:52:51.522Z,147666.16
2023-04-01T06:54:31.224Z,147641.94
2023-04-01T06:56:12.630Z,147670.97
2023-04-01T06:57:43.104Z,147670.97
2023-04-01T06:58:54.406Z,147670.97
2023-04-01T07:00:00.882Z,147632.25
2023-04-01T07:01:31.126Z,147645.56
2023-04-01T07:02:46.774Z,147675.81
2023-04-01T07:03:58.149Z,147678.22
2023-04-01T07:05:03.638Z,147652.81
2023-04-01T07:06:13.723Z,147670.97
2023-04-01T07:07:32.316Z,147660.06
2023-04-01T07:08:44.315Z,147672.19
2023-04-01T07:09:54.031Z,147670.97
2023-04-01T07:11:11.801Z,147674.59
2023-04-01T07:12:32.799Z,147645.56
2023-04-01T07:14:04.004Z,147666.16
2023-04-01T07:15:29.915Z,147666.16
2023-04-01T07:16:41.065Z,147658.84
2023-04-01T07:17:47.272Z,147646.75
2023-04-01T07:19:14.216Z,147663.69
2023-04-01T07:20:33.760Z,147644.34
2023-04-01T07:22:07.715Z,147656.44
2023-04-01T07:23:42.162Z,147670.97
2023-04-01T07:25:02.679Z,147666.16
2023-04-01T07:26:18.160Z,147673.41
2023-04-01T07:27:24.403Z,147654.00
2023-04-01T07:28:33.165Z,147674.59
2023-04-01T07:29:42.527Z,147632.25
2023-04-01T07:31:02.505Z,147666.16
2023-04-01T07:32:26.348Z,147684.28
2023-04-01T07:33:41.924Z,147663.69
2023-04-01T07:35:07.868Z,147687.91
2023-04-01T07:36:40.363Z,147698.81
2023-04-01T07:37:59.806Z,147658.84
2023-04-01T07:39:42.780Z,147692.75
2023-04-01T07:41:04.376Z,147683.06
2023-04-01T07:42:15.050Z,147692.75
2023-04-01T07:43:26.485Z,147697.63
2023-04-01T07:45:17.694Z,147698.81
2023-04-01T07:46:48.417Z,147702.47
2023-04-01T07:47:57.849Z,147704.88
2023-04-01T07:49:18.415Z,147738.78
2023-04-01T07:50:28.021Z,147715.75
2023-04-01T07:51:39.796Z,147759.31
2023-04-01T07:53:03.662Z,147769.03
2023-04-01T07:54:17.580Z,147828.38
2023-04-01T07:55:31.306Z,147869.56
2023-04-01T07:56:43.274Z,147932.59
2023-04-01T07:57:57.070Z,147925.22
2023-04-01T07:59:11.832Z,147947.09
2023-04-01T08:00:50.585Z,147954.34
2023-04-01T08:02:24.255Z,147859.84
2023-04-01T08:03:38.823Z,147881.66
2023-04-01T08:05:05.166Z,147927.75
2023-04-01T08:06:26.713Z,147884.06
2023-04-01T08:07:41.470Z,147915.56
2023-04-01T08:09:21.808Z,147890.13
2023-04-01T08:10:55.630Z,147853.78
2023-04-01T08:12:35.351Z,147864.72
2023-04-01T08:13:45.431Z,147871.97
2023-04-01T08:15:17.121Z,147888.91
2023-04-01T08:16:47.115Z,147939.84
2023-04-01T08:18:28.038Z,147938.63
2023-04-01T08:19:52.035Z,147878.03
2023-04-01T08:21:00.467Z,147964.09
2023-04-01T08:22:09.794Z,147985.84
2023-04-01T08:23:16.762Z,147994.38
2023-04-01T08:24:46.368Z,148034.34
2023-04-01T08:25:55.672Z,148065.84
2023-04-01T08:27:06.798Z,148081.59
2023-04-01T08:28:21.332Z,148073.13
2023-04-01T08:29:41.241Z,148058.59
2023-04-01T08:30:47.253Z,148024.66
2023-04-01T08:32:17.601Z,148028.31
2023-04-01T08:33:29.725Z,148024.66
2023-04-01T08:34:47.246Z,147987.06
2023-04-01T08:36:33.858Z,147978.59
2023-04-01T08:37:53.727Z,147864.72
2023-04-01T08:39:15.562Z,147920.41
2023-04-01T08:40:28.890Z,147893.78
2023-04-01T08:41:50.005Z,147925.22
2023-04-01T08:43:48.214Z,147844.09
2023-04-01T08:44:50.971Z,147793.22
2023-04-01T08:46:26.870Z,147864.72
2023-04-01T08:47:41.387Z,147845.31
2023-04-01T08:48:56.489Z,147847.75
2023-04-01T08:50:13.893Z,147859.84
2023-04-01T08:52:08.496Z,147893.78
2023-04-01T08:54:00.238Z,147921.59
2023-04-01T08:55:38.858Z,147951.94
2023-04-01T08:57:02.161Z,147981.03
2023-04-01T08:58:43.904Z,148068.28
2023-04-01T09:00:47.022Z,148124.03
2023-04-01T09:02:17.926Z,148193.13
2023-04-01T09:04:02.860Z,148305.91
2023-04-01T09:05:38.030Z,148385.97
2023-04-01T09:06:59.271Z,148407.78
2023-04-01T09:08:04.805Z,148405.34
2023-04-01T09:09:15.357Z,148383.56
2023-04-01T09:10:42.467Z,148325.31
2023-04-01T09:12:35.407Z,148336.22
2023-04-01T09:14:08.271Z,148387.19
2023-04-01T09:15:28.217Z,148353.22
2023-04-01T09:17:08.393Z,148338.66
2023-04-01T09:18:49.681Z,148237.97
2023-04-01T09:19:55.202Z,148254.97
2023-04-01T09:21:35.157Z,148284.06
2023-04-01T09:22:48.729Z,148295.00
2023-04-01T09:24:14.284Z,148228.28
2023-04-01T09:25:35.772Z,148213.72
2023-04-01T09:26:50.882Z,148262.28
2023-04-01T09:28:05.049Z,148281.66
2023-04-01T09:29:27.990Z,148298.63
2023-04-01T09:30:55.157Z,148236.75
2023-04-01T09:32:25.609Z,148218.53
2023-04-01T09:34:02.303Z,148179.75
2023-04-01T09:35:49.625Z,148171.28
2023-04-01T09:37:08.052Z,148053.72
2023-04-01T09:38:23.532Z,148035.56
2023-04-01T09:39:38.065Z,148075.53
2023-04-01T09:41:12.617Z,148074.31
2023-04-01T09:43:28.977Z,148121.56
2023-04-01T09:44:47.065Z,148099.78
2023-04-01T09:45:55.494Z,148104.63
2023-04-01T09:47:07.713Z,148119.16
2023-04-01T09:48:31.582Z,148148.25
2023-04-01T09:49:47.786Z,148178.56
2023-04-01T09:50:54.869Z,148206.44
2023-04-01T09:52:24.985Z,148305.91
2023-04-01T09:53:58.942Z,148301.06
2023-04-01T09:55:23.095Z,148339.88
2023-04-01T09:56:53.581Z,148410.19
2023-04-01T09:58:31.358Z,148483.03
2023-04-01T10:00:00.173Z,148520.63
2023-04-01T10:01:46.413Z,148502.41
2023-04-01T10:03:31.474Z,148457.53
2023-04-01T10:05:02.186Z,148492.72
2023-04-01T10:06:29.310Z,148526.69
2023-04-01T10:08:04.379Z,148514.56
2023-04-01T10:09:28.232Z,148399.28
2023-04-01T10:10:44.199Z,148279.22
2023-04-01T10:11:51.161Z,148213.72
2023-04-01T10:12:59.795Z,148177.34
2023-04-01T10:14:02.229Z,148085.22
2023-04-01T10:15:19.725Z,148104.63
2023-04-01T10:16:44.245Z,148047.66
2023-04-01T10:18:20.556Z,148024.66
2023-04-01T10:19:56.682Z,147996.78
2023-04-01T10:21:40.724Z,147942.25
2023-04-01T10:23:23.800Z,147984.66
2023-04-01T10:25:06.007Z,148006.47
2023-04-01T10:26:33.773Z,147971.34
2023-04-01T10:28:26.441Z,147949.53
2023-04-01T10:30:28.366Z,147956.78
2023-04-01T10:32:09.488Z,147857.41
2023-04-01T10:33:42.767Z,147838.06
2023-04-01T10:35:08.088Z,147842.91
2023-04-01T10:36:34.726Z,147830.81
2023-04-01T10:38:21.289Z,147855.00
2023-04-01T10:40:01.937Z,147881.66
2023-04-01T10:41:51.888Z,147893.78
2023-04-01T10:43:47.582Z,147898.63
2023-04-01T10:45:06.289Z,147882.84
2023-04-01T10:46:41.412Z,147856.19
2023-04-01T10:48:15.656Z,147829.59
2023-04-01T10:49:33.611Z,147857.41
2023-04-01T10:51:05.583Z,147879.22
2023-04-01T10:52:28.648Z,147847.75
2023-04-01T10:53:58.503Z,147876.81
2023-04-01T10:55:52.736Z,147867.13
2023-04-01T10:57:52.617Z,147882.84
2023-04-01T10:59:58.861Z,147882.84
2023-04-01T11:01:37.713Z,147898.63
2023-04-01T11:03:56.112Z,147873.19
2023-04-01T11:05:50.724Z,147878.03
2023-04-01T11:07:18.558Z,147830.81
2023-04-01T11:08:49.028Z,147775.09
2023-04-01T11:09:51.443Z,147785.97
2023-04-01T11:11:29.848Z,147840.47
2023-04-01T11:12:41.950Z,147870.75
2023-04-01T11:14:18.559Z,147799.31
2023-04-01T11:15:49.178Z,147782.34
2023-04-01T11:17:20.157Z,147804.16
2023-04-01T11:19:07.877Z,147813.81
2023-04-01T11:20:35.237Z,147833.22
2023-04-01T11:21:57.556Z,147748.44
2023-04-01T11:23:18.813Z,147760.53
2023-04-01T11:25:01.639Z,147716.97
2023-04-01T11:26:54.153Z,147765.41
2023-04-01T11:28:26.239Z,147692.75
2023-04-01T11:29:59.671Z,147697.63
2023-04-01T11:31:21.119Z,147702.47
2023-04-01T11:32:40.669Z,147723.00
2023-04-01T11:34:17.868Z,147681.84
2023-04-01T11:35:20.482Z,147644.34
2023-04-01T11:36:32.023Z,147668.56
2023-04-01T11:37:55.886Z,147649.19
2023-04-01T11:39:34.287Z,147663.69
2023-04-01T11:40:59.368Z,147646.75
2023-04-01T11:42:22.059Z,147588.66
2023-04-01T11:44:01.530Z,147513.59
2023-04-01T11:45:44.859Z,147547.47
2023-04-01T11:47:18.572Z,147529.31
2023-04-01T11:48:54.694Z,147516.03
2023-04-01T11:50:18.692Z,147467.59
2023-04-01T11:51:43.548Z,147503.94
2023-04-01T11:52:54.944Z,147501.47
2023-04-01T11:54:00.360Z,147499.06
2023-04-01T11:55:21.222Z,147467.59
2023-04-01T11:57:06.975Z,147453.09
2023-04-01T11:58:53.980Z,147457.94
2023-04-01T12:00:03.775Z,147358.75
2023-04-01T12:01:09.477Z,147375.72
2023-04-01T12:02:25.231Z,147375.72
2023-04-01T12:04:12.877Z,147445.84
2023-04-01T12:05:33.814Z,147438.63
2023-04-01T12:06:49.675Z,147457.94
2023-04-01T12:08:10.194Z,147404.75
2023-04-01T12:09:31.564Z,147366.00
2023-04-01T12:11:08.868Z,147431.31
2023-04-01T12:12:21.114Z,147421.66
2023-04-01T12:13:29.394Z,147424.06
2023-04-01T12:14:31.811Z,147395.03
2023-04-01T12:15:43.218Z,147408.38
2023-04-01T12:17:00.596Z,147424.06
2023-04-01T12:18:06.193Z,147445.84
2023-04-01T12:19:20.056Z,147375.72
2023-04-01T12:20:52.444Z,147390.19
2023-04-01T12:21:54.836Z,147351.50
2023-04-01T12:22:59.998Z,147370.84
2023-04-01T12:24:26.884Z,147381.75
2023-04-01T12:25:59.532Z,147387.78
2023-04-01T12:27:20.171Z,147334.56
2023-04-01T12:28:49.340Z,147339.44
2023-04-01T12:30:19.325Z,147346.69
2023-04-01T12:32:00.243Z,147329.72
2023-04-01T12:33:22.587Z,147324.91
2023-04-01T12:34:46.684Z,147320.06
2023-04-01T12:35:49.107Z,147288.63
2023-04-01T12:37:42.617Z,147297.09
2023-04-01T12:38:53.050Z,147315.25
2023-04-01T12:40:24.271Z,147300.69
2023-04-01T12:41:35.773Z,147295.88
2023-04-01T12:43:01.122Z,147281.38
2023-04-01T12:44:31.095Z,147300.69
2023-04-01T12:45:35.951Z,147286.22
2023-04-01T12:46:47.783Z,147303.13
2023-04-01T12:47:53.458Z,147280.19
2023-04-01T12:49:20.658Z,147317.66
2023-04-01T12:50:44.653Z,147358.75
2023-04-01T12:52:07.944Z,147366.00
2023-04-01T12:53:35.176Z,147347.88
2023-04-01T12:54:43.579Z,147366.00
2023-04-01T12:55:50.428Z,147317.66
2023-04-01T12:57:17.143Z,147322.50
2023-04-01T12:58:54.869Z,147366.00
2023-04-01T13:00:21.998Z,147299.50
2023-04-01T13:02:00.996Z,147299.50
2023-04-01T13:03:36.646Z,147265.63
2023-04-01T13:05:15.991Z,147332.16
2023-04-01T13:06:21.606Z,147288.63
2023-04-01T13:07:37.826Z,147295.88
2023-04-01T13:08:55.475Z,147286.22
2023-04-01T13:10:19.354Z,147334.56
2023-04-01T13:11:58.710Z,147308.00
2023-04-01T13:13:19.588Z,147282.59
2023-04-01T13:14:31.375Z,147228.16
2023-04-01T13:16:09.418Z,147266.84
2023-04-01T13:17:32.813Z,147263.22
2023-04-01T13:18:48.632Z,147236.63
2023-04-01T13:20:06.613Z,147240.25
2023-04-01T13:21:22.850Z,147243.91
2023-04-01T13:22:51.278Z,147210.06
2023-04-01T13:24:30.761Z,147234.22
2023-04-01T13:25:48.163Z,147242.72
2023-04-01T13:27:20.101Z,147269.25
2023-04-01T13:28:31.122Z,147274.13
2023-04-01T13:29:42.285Z,147288.63
2023-04-01T13:30:58.061Z,147278.97
2023-04-01T13:32:06.420Z,147269.25
2023-04-01T13:33:31.058Z,147281.38
2023-04-01T13:34:53.570Z,147234.22
2023-04-01T13:36:12.666Z,147258.41
2023-04-01T13:37:54.652Z,147270.47
2023-04-01T13:39:08.332Z,147228.16
2023-04-01T13:40:27.291Z,147213.69
2023-04-01T13:41:48.899Z,147224.56
2023-04-01T13:42:55.613Z,147174.97
2023-04-01T13:44:19.607Z,147165.31
2023-04-01T13:45:43.970Z,147177.44
2023-04-01T13:46:48.261Z,147173.75
2023-04-01T13:48:06.003Z,147206.41
2023-04-01T13:49:16.971Z,147240.25
2023-04-01T13:50:49.612Z,147266.84
2023-04-01T13:52:14.347Z,147216.09
2023-04-01T13:53:25.854Z,147216.09
2023-04-01T13:55:20.824Z,147167.72
2023-04-01T13:56:23.221Z,147126.66
2023-04-01T13:57:40.495Z,147160.47
2023-04-01T13:59:27.916Z,147155.66
2023-04-01T14:01:01.493Z,147183.47
2023-04-01T14:02:26.755Z,147166.53
2023-04-01T14:03:50.272Z,147162.91
2023-04-01T14:05:15.907Z,147177.44
2023-04-01T14:06:30.434Z,147203.97
2023-04-01T14:07:48.663Z,147168.94
2023-04-01T14:09:00.928Z,147207.59
2023-04-01T14:10:18.069Z,147174.97
2023-04-01T14:11:37.994Z,147131.47
2023-04-01T14:12:46.026Z,147101.22
2023-04-01T14:14:01.267Z,147126.66
2023-04-01T14:15:23.351Z,147126.66
2023-04-01T14:17:10.156Z,147167.72
2023-04-01T14:18:37.521Z,147172.56
2023-04-01T14:20:17.113Z,147164.09
2023-04-01T14:21:48.318Z,147120.63
2023-04-01T14:22:53.476Z,147114.56